Terminal Aerodrome Forecast
Issued by NWS

Home | Current Version | Previous Version | Text Only | Print | Product List | Glossary On
Versions: 1 2 3 4 5 6 7 8 9 10 11 12 13 14 15 16 17
000
FTUS45 KTFX 111142
TAFHLN
TAF
KHLN 111142Z 1112/1212 VRB05KT P6SM SCT120
     FM111700 22004KT P6SM BKN060 PROB30 1203/1206 4SM -SN OVC015
     FM120600 26005KT P6SM BKN030 PROB30 1206/1208 2SM -SN OVC015
     FM120800 29007KT 1SM -SN BKN015 OVC035=

USA.gov is the U.S. government's official web portal to all federal, state and local government web resources and services.